createdAt,value
2022-11-24T00:07:13.466Z,18.603515625
2022-11-24T00:17:13.348Z,18.505859375
2022-11-24T00:27:13.271Z,18.896484375
2022-11-24T00:37:13.210Z,18.994140625
2022-11-24T00:47:13.303Z,18.603515625
2022-11-24T00:57:13.056Z,18.798828125
2022-11-24T01:07:13.139Z,19.29931640625
2022-11-24T01:17:13.008Z,17.00439453125
2022-11-24T01:27:12.849Z,18.20068359375
2022-11-24T01:37:12.795Z,19.29931640625
2022-11-24T01:47:12.721Z,19.29931640625
2022-11-24T01:57:12.637Z,19.29931640625
2022-11-24T02:07:12.649Z,19.49462890625
2022-11-24T02:17:12.492Z,19.20166015625
2022-11-24T02:27:12.490Z,18.994140625
2022-11-24T02:37:12.448Z,17.10205078125
2022-11-24T02:47:12.306Z,17.10205078125
2022-11-24T02:57:12.194Z,17.7978515625
2022-11-24T03:07:12.187Z,17.19970703125
2022-11-24T03:17:12.071Z,16.39404296875
2022-11-24T03:27:11.992Z,16.50390625
2022-11-24T03:37:11.905Z,15.6982421875
2022-11-24T03:47:11.854Z,15.7958984375
2022-11-24T03:57:11.764Z,15.5029296875
2022-11-24T04:07:11.781Z,15.4052734375
2022-11-24T04:17:11.640Z,15.19775390625
2022-11-24T04:27:11.654Z,15.19775390625
2022-11-24T04:37:11.494Z,15.6005859375
2022-11-24T04:47:11.412Z,15.29541015625
2022-11-24T04:57:11.375Z,15.29541015625
2022-11-24T05:07:14.972Z,15.29541015625
2022-11-24T05:17:11.179Z,15.00244140625
2022-11-24T05:27:11.105Z,14.794921875
2022-11-24T05:37:11.029Z,14.599609375
2022-11-24T05:47:10.976Z,14.599609375
2022-11-24T05:57:10.993Z,14.501953125
2022-11-24T06:07:10.909Z,14.29443359375
2022-11-24T06:17:10.752Z,14.09912109375
2022-11-24T06:27:10.677Z,14.09912109375
2022-11-24T06:37:10.615Z,14.00146484375
2022-11-24T06:47:10.536Z,14.00146484375
2022-11-24T06:57:10.481Z,13.90380859375
2022-11-24T07:07:10.459Z,13.90380859375
2022-11-24T07:17:10.342Z,13.7939453125
2022-11-24T07:27:10.257Z,13.6962890625
2022-11-24T07:37:10.209Z,13.5009765625
2022-11-24T07:47:10.115Z,13.5009765625
2022-11-24T07:57:10.054Z,13.5009765625
2022-11-24T08:07:10.011Z,13.5009765625
2022-11-24T08:17:09.996Z,13.5009765625
2022-11-24T08:27:09.856Z,13.5986328125
2022-11-24T08:37:09.781Z,13.5009765625
2022-11-24T08:47:09.707Z,13.4033203125
2022-11-24T08:57:09.641Z,13.4033203125
2022-11-24T09:07:09.663Z,13.3056640625
2022-11-24T09:17:09.517Z,13.19580078125
2022-11-24T09:27:09.444Z,13.19580078125
2022-11-24T09:37:09.343Z,13.19580078125
2022-11-24T09:47:09.310Z,13.19580078125
2022-11-24T09:57:09.200Z,13.19580078125
2022-11-24T10:07:09.549Z,13.19580078125
2022-11-24T10:17:09.119Z,13.09814453125
2022-11-24T10:27:09.005Z,13.09814453125
2022-11-24T10:37:08.938Z,13.09814453125
2022-11-24T10:47:08.871Z,13.09814453125
2022-11-24T10:57:08.807Z,13.09814453125
2022-11-24T11:07:08.816Z,13.09814453125
2022-11-24T11:17:08.673Z,13.09814453125
2022-11-24T11:27:08.586Z,12.90283203125
2022-11-24T11:37:08.503Z,12.80517578125
2022-11-24T11:47:08.507Z,12.5
2022-11-24T11:57:08.383Z,12.298583984375
2022-11-24T12:07:08.426Z,12.09716796875
2022-11-24T12:17:08.249Z,12.298583984375
2022-11-24T12:27:08.163Z,12.298583984375
2022-11-24T12:37:08.093Z,11.99951171875
2022-11-24T12:47:08.199Z,11.602783203125
2022-11-24T12:57:07.953Z,11.4990234375
2022-11-24T13:07:08.066Z,11.4013671875
2022-11-24T13:17:29.349Z,11.297607421875
2022-11-24T13:27:07.763Z,11.102294921875
2022-11-24T13:37:33.690Z,10.99853515625
2022-11-24T13:47:07.654Z,10.90087890625
2022-11-24T13:57:07.554Z,10.797119140625
2022-11-24T14:07:08.785Z,10.498046875
2022-11-24T14:17:07.537Z,10.302734375
2022-11-24T14:27:07.544Z,10.101318359375
2022-11-24T14:37:07.557Z,9.99755859375
2022-11-24T14:47:07.390Z,9.80224609375
2022-11-24T14:57:07.165Z,9.698486328125
2022-11-24T15:07:07.333Z,9.80224609375
2022-11-24T15:17:07.138Z,9.600830078125
2022-11-24T15:27:06.925Z,9.4970703125
2022-11-24T15:37:06.869Z,9.3994140625
2022-11-24T15:47:06.963Z,9.3017578125
2022-11-24T15:57:06.718Z,9.3017578125
2022-11-24T16:07:06.653Z,9.3017578125
2022-11-24T16:17:06.589Z,9.3994140625
2022-11-24T16:27:06.608Z,9.4970703125
2022-11-24T16:37:06.459Z,9.3994140625
2022-11-24T16:47:06.393Z,9.600830078125
2022-11-24T16:57:10.338Z,9.99755859375
2022-11-24T17:07:06.267Z,10.101318359375
2022-11-24T17:17:06.260Z,10.101318359375
2022-11-24T17:27:06.115Z,10.101318359375
2022-11-24T17:37:06.052Z,10.302734375
2022-11-24T17:47:05.979Z,10.400390625
2022-11-24T17:57:05.904Z,10.498046875
2022-11-24T18:07:05.829Z,10.400390625
2022-11-24T18:17:05.873Z,10.198974609375
2022-11-24T18:27:05.718Z,10.101318359375
2022-11-24T18:37:05.625Z,9.99755859375
2022-11-24T18:47:05.557Z,9.89990234375
2022-11-24T18:57:05.486Z,9.89990234375
2022-11-24T19:07:05.431Z,9.99755859375
2022-11-24T19:17:05.416Z,10.198974609375
2022-11-24T19:27:05.311Z,10.302734375
2022-11-24T19:37:05.218Z,10.400390625
2022-11-24T19:47:05.144Z,10.400390625
2022-11-24T19:57:05.092Z,10.601806640625
2022-11-24T20:07:05.036Z,10.90087890625
2022-11-24T20:17:04.948Z,12.09716796875
2022-11-24T20:27:04.968Z,12.59765625
2022-11-24T20:37:04.783Z,13.90380859375
2022-11-24T20:47:04.743Z,14.90478515625
2022-11-24T20:57:04.667Z,16.6015625
2022-11-24T21:07:04.620Z,15.90576171875
2022-11-24T21:17:04.532Z,16.39404296875
2022-11-24T21:27:04.448Z,16.29638671875
2022-11-24T21:37:04.400Z,16.00341796875
2022-11-24T21:47:04.319Z,18.798828125
2022-11-24T21:57:04.251Z,18.10302734375
2022-11-24T22:07:04.150Z,18.29833984375
2022-11-24T22:17:04.098Z,18.39599609375
2022-11-24T22:27:04.019Z,19.9951171875
2022-11-24T22:37:03.947Z,19.39697265625
2022-11-24T22:47:03.880Z,19.39697265625
2022-11-24T22:57:03.807Z,20.20263671875
2022-11-24T23:07:03.735Z,19.6044921875
2022-11-24T23:17:03.665Z,19.9951171875
2022-11-24T23:27:03.581Z,20.60546875
2022-11-24T23:37:03.497Z,21.20361328125
2022-11-24T23:47:03.443Z,21.8017578125
2022-11-24T23:57:03.351Z,22.49755859375
